Time;durP1;ratioP1;P1;durP2;ratioP2;P2;SDS_P1;SDS_P2;PMS_P1;PMS_P2;Temp;Humidity;BMP_temperature;BMP_pressure;BME280_temperature;BME280_humidity;BME280_pressure;Samples;Min_cycle;Max_cycle;Signal;HPM_P1;HPM_P2
2023/08/23 00:01:12;;;;;;;8.30;6.07;;;17.00;99.90;;;;;;5110025;28;20036;-58
2023/08/23 00:03:38;;;;;;;9.43;6.18;;;17.00;99.90;;;;;;5107816;28;20039;-58
2023/08/23 00:06:03;;;;;;;6.55;5.28;;;17.00;99.90;;;;;;5111345;28;20122;-55
2023/08/23 00:08:29;;;;;;;5.43;4.80;;;16.90;99.90;;;;;;5110852;28;20498;-59
2023/08/23 00:10:55;;;;;;;7.18;5.45;;;16.90;99.90;;;;;;5110170;27;20058;-59
2023/08/23 00:13:22;;;;;;;6.47;5.25;;;16.90;99.90;;;;;;5077089;28;20069;-59
2023/08/23 00:15:48;;;;;;;7.68;5.38;;;16.90;99.90;;;;;;5112806;27;20091;-59
2023/08/23 00:18:14;;;;;;;8.38;6.32;;;16.90;99.90;;;;;;5113155;28;20472;-57
2023/08/23 00:20:39;;;;;;;8.30;6.40;;;16.80;99.90;;;;;;5114487;28;20040;-56
2023/08/23 00:23:05;;;;;;;8.00;7.03;;;16.70;99.90;;;;;;5115441;27;20028;-58
2023/08/23 00:25:31;;;;;;;12.73;6.70;;;16.80;99.90;;;;;;5113306;28;20096;-54
2023/08/23 00:27:57;;;;;;;8.57;6.45;;;16.70;99.90;;;;;;5116171;28;20023;-56
2023/08/23 00:30:23;;;;;;;7.53;6.20;;;16.70;99.90;;;;;;5116710;27;20036;-58
2023/08/23 00:32:48;;;;;;;7.63;6.22;;;16.70;99.90;;;;;;5097059;28;20123;-56
2023/08/23 00:35:14;;;;;;;6.20;4.85;;;16.60;99.90;;;;;;5103322;28;20050;-56
2023/08/23 00:37:40;;;;;;;6.85;5.43;;;16.60;99.90;;;;;;5090494;28;20051;-58
2023/08/23 00:40:09;;;;;;;9.95;4.57;;;16.50;99.90;;;;;;5097573;28;20049;-57
2023/08/23 00:42:35;;;;;;;7.40;5.60;;;16.40;99.90;;;;;;5115913;27;20666;-57
2023/08/23 00:45:01;;;;;;;8.68;6.38;;;16.40;99.90;;;;;;5103489;28;20040;-57
2023/08/23 00:47:27;;;;;;;10.65;7.25;;;16.40;99.90;;;;;;5115409;28;20039;-57
2023/08/23 00:49:52;;;;;;;8.98;6.85;;;16.30;99.90;;;;;;5115671;27;20537;-55
2023/08/23 00:52:18;;;;;;;9.77;7.35;;;16.30;99.90;;;;;;5114990;28;20052;-58
2023/08/23 00:54:47;;;;;;;15.43;7.72;;;16.30;99.90;;;;;;5115492;28;20734;-54
2023/08/23 00:57:14;;;;;;;11.18;7.60;;;16.40;99.90;;;;;;5115245;28;20046;-55
2023/08/23 00:59:40;;;;;;;11.80;8.15;;;16.30;99.90;;;;;;5114271;28;20046;-56
2023/08/23 01:02:06;;;;;;;10.63;7.43;;;16.30;99.90;;;;;;5114565;28;20043;-58
2023/08/23 01:04:31;;;;;;;12.48;7.82;;;16.30;99.90;;;;;;5108513;28;20050;-56
2023/08/23 01:07:26;;;;;;;11.57;7.95;;;16.30;99.90;;;;;;5114142;28;20057;-58
2023/08/23 01:10:02;;;;;;;8.50;7.03;;;16.30;99.90;;;;;;5099147;28;20040;-57
2023/08/23 01:12:42;;;;;;;11.40;8.25;;;16.30;99.90;;;;;;5113588;28;20039;-57
2023/08/23 01:15:11;;;;;;;11.52;7.35;;;16.30;99.90;;;;;;5116438;28;20046;-56
2023/08/23 01:17:42;;;;;;;10.45;7.72;;;16.30;99.90;;;;;;5116577;28;20047;-56
2023/08/23 01:20:13;;;;;;;11.20;7.82;;;16.30;99.90;;;;;;5114984;28;20032;-59
2023/08/23 01:22:45;;;;;;;8.00;6.75;;;16.30;99.90;;;;;;5113675;28;20043;-59
2023/08/23 01:25:13;;;;;;;10.82;7.93;;;16.30;99.90;;;;;;5115052;28;20146;-59
2023/08/23 01:27:38;;;;;;;9.88;7.80;;;16.20;99.90;;;;;;5114684;28;20035;-55
2023/08/23 01:30:05;;;;;;;8.23;6.45;;;16.20;99.90;;;;;;5117854;28;20036;-59
2023/08/23 01:33:01;;;;;;;9.70;6.65;;;16.20;99.90;;;;;;5085154;28;20196;-57
2023/08/23 01:35:33;;;;;;;9.02;6.20;;;16.20;99.90;;;;;;5114815;28;20032;-59
2023/08/23 01:38:00;;;;;;;7.85;5.65;;;16.20;99.90;;;;;;5113622;28;20099;-59
2023/08/23 01:40:26;;;;;;;9.93;6.88;;;16.10;99.90;;;;;;5113138;28;20435;-55
2023/08/23 01:42:53;;;;;;;9.15;6.88;;;16.00;99.90;;;;;;5115212;28;20059;-55
2023/08/23 01:45:19;;;;;;;9.50;7.10;;;16.10;99.90;;;;;;5113987;28;20040;-58
2023/08/23 01:47:44;;;;;;;12.63;6.93;;;16.10;99.90;;;;;;5116830;28;20044;-59
2023/08/23 01:50:10;;;;;;;12.05;7.28;;;16.00;99.90;;;;;;5114709;28;20048;-57
2023/08/23 01:52:36;;;;;;;12.95;7.32;;;16.00;99.90;;;;;;5117004;28;20565;-59
2023/08/23 01:55:03;;;;;;;9.57;7.88;;;16.00;99.90;;;;;;5113340;28;20061;-59
2023/08/23 01:57:28;;;;;;;11.55;8.40;;;16.00;99.90;;;;;;5116608;28;20386;-57
2023/08/23 01:59:56;;;;;;;13.13;8.90;;;16.00;99.90;;;;;;5117570;28;20039;-56
2023/08/23 02:02:22;;;;;;;15.00;9.18;;;16.00;99.90;;;;;;5097577;28;20028;-58
2023/08/23 02:04:48;;;;;;;15.50;8.95;;;16.00;99.90;;;;;;5114970;28;20070;-57
2023/08/23 02:07:14;;;;;;;13.95;10.00;;;16.00;99.90;;;;;;5113477;28;20048;-59
2023/08/23 02:09:40;;;;;;;13.27;8.98;;;16.00;99.90;;;;;;5112285;28;20108;-55
2023/08/23 02:12:06;;;;;;;12.13;9.48;;;16.10;99.90;;;;;;5109965;28;20561;-58
2023/08/23 02:14:31;;;;;;;14.07;9.50;;;16.10;99.90;;;;;;5116861;28;20698;-59
2023/08/23 02:16:57;;;;;;;9.93;7.35;;;16.10;99.90;;;;;;5118060;28;20036;-57
2023/08/23 02:19:22;;;;;;;10.20;6.90;;;16.10;99.90;;;;;;5119813;28;20040;-55
2023/08/23 02:21:49;;;;;;;9.55;6.82;;;16.00;99.90;;;;;;5119806;28;20070;-58
2023/08/23 02:24:14;;;;;;;10.52;7.00;;;16.00;99.90;;;;;;5106659;28;20028;-55
2023/08/23 02:26:40;;;;;;;10.60;7.43;;;16.00;99.90;;;;;;5120509;27;20046;-58
2023/08/23 02:29:06;;;;;;;12.02;7.60;;;15.90;99.90;;;;;;5119472;28;20028;-58
2023/08/23 02:31:31;;;;;;;12.65;7.82;;;15.90;99.90;;;;;;5116900;28;20066;-57
2023/08/23 02:33:57;;;;;;;9.30;7.35;;;15.90;99.90;;;;;;5107424;28;20087;-56
2023/08/23 02:36:23;;;;;;;13.05;8.43;;;15.90;99.90;;;;;;5117054;28;20043;-58
2023/08/23 02:38:49;;;;;;;14.07;8.80;;;15.90;99.90;;;;;;5117920;27;20054;-59
2023/08/23 02:41:14;;;;;;;11.05;7.88;;;15.90;99.90;;;;;;5117353;27;20044;-58
2023/08/23 02:43:40;;;;;;;12.07;8.38;;;15.90;99.90;;;;;;5120031;27;20042;-57
2023/08/23 02:46:06;;;;;;;11.63;8.27;;;15.80;99.90;;;;;;5108129;28;20051;-56
2023/08/23 02:48:31;;;;;;;14.90;9.30;;;15.80;99.90;;;;;;5101365;28;20044;-56
2023/08/23 02:50:59;;;;;;;14.63;9.77;;;15.80;99.90;;;;;;5120018;27;20055;-55
2023/08/23 02:53:25;;;;;;;15.77;10.32;;;15.90;99.90;;;;;;5118899;27;20127;-59
2023/08/23 02:55:51;;;;;;;15.13;9.93;;;15.90;99.90;;;;;;5119314;28;20087;-56
2023/08/23 02:58:17;;;;;;;9.45;7.93;;;15.90;99.90;;;;;;5120379;27;20054;-56
2023/08/23 03:00:42;;;;;;;10.68;7.78;;;15.90;99.90;;;;;;5117567;27;20039;-57
2023/08/23 03:03:08;;;;;;;9.77;6.93;;;15.90;99.90;;;;;;5116771;28;20051;-57
2023/08/23 03:05:34;;;;;;;10.27;6.93;;;15.80;99.90;;;;;;5117472;27;20035;-58
2023/08/23 03:07:59;;;;;;;8.50;6.68;;;15.70;99.90;;;;;;5105293;28;20604;-57
2023/08/23 03:10:25;;;;;;;10.30;7.72;;;15.60;99.90;;;;;;5100356;27;20035;-53
2023/08/23 03:12:51;;;;;;;10.35;7.38;;;15.60;99.90;;;;;;5115702;27;20088;-57
2023/08/23 03:15:16;;;;;;;14.38;8.57;;;15.60;99.90;;;;;;5118288;28;20536;-56
2023/08/23 03:17:42;;;;;;;11.65;9.05;;;15.60;99.90;;;;;;5118412;27;20036;-57
2023/08/23 03:20:08;;;;;;;14.45;8.93;;;15.70;99.90;;;;;;5099115;28;20111;-59
2023/08/23 03:22:34;;;;;;;12.30;9.43;;;15.70;99.90;;;;;;5100834;28;20104;-55
2023/08/23 03:24:59;;;;;;;15.20;8.98;;;15.70;99.90;;;;;;5117730;28;20035;-57
2023/08/23 03:27:25;;;;;;;13.32;8.55;;;15.70;99.90;;;;;;5115851;27;20043;-55
2023/08/23 03:29:51;;;;;;;12.55;9.00;;;15.80;99.90;;;;;;5118570;28;20043;-58
2023/08/23 03:32:19;;;;;;;13.35;8.80;;;15.80;99.90;;;;;;5117136;27;20695;-57
2023/08/23 03:34:45;;;;;;;12.18;8.40;;;15.80;99.90;;;;;;5117685;27;20082;-56
2023/08/23 03:37:10;;;;;;;11.80;8.75;;;15.80;99.90;;;;;;5118292;28;20051;-58
2023/08/23 03:39:37;;;;;;;14.05;9.05;;;15.90;99.90;;;;;;5119151;27;20029;-57
2023/08/23 03:42:04;;;;;;;10.88;8.57;;;15.80;99.90;;;;;;5112864;28;20039;-58
2023/08/23 03:44:29;;;;;;;12.27;8.25;;;15.90;99.90;;;;;;5102313;27;20035;-57
2023/08/23 03:46:56;;;;;;;13.07;8.32;;;15.90;99.90;;;;;;5117960;28;20042;-57
2023/08/23 03:49:22;;;;;;;9.63;8.30;;;15.90;99.90;;;;;;5118584;28;20048;-58
2023/08/23 03:51:48;;;;;;;11.02;8.55;;;15.90;99.90;;;;;;5118007;28;20052;-56
2023/08/23 03:54:14;;;;;;;11.00;8.23;;;15.90;99.90;;;;;;5119137;27;20055;-58
2023/08/23 03:56:39;;;;;;;13.60;8.55;;;15.90;99.90;;;;;;5117872;28;20044;-55
2023/08/23 03:59:05;;;;;;;13.00;8.85;;;15.90;99.90;;;;;;5119111;28;20047;-57
2023/08/23 04:01:31;;;;;;;13.27;9.00;;;15.90;99.90;;;;;;5117410;28;20027;-57
2023/08/23 04:03:56;;;;;;;11.07;8.30;;;15.90;99.90;;;;;;5117032;28;20043;-59
2023/08/23 04:06:22;;;;;;;10.15;8.48;;;15.90;99.90;;;;;;5116598;28;20040;-58
2023/08/23 04:08:48;;;;;;;11.20;8.32;;;15.90;99.90;;;;;;5100682;28;20036;-58
2023/08/23 04:11:13;;;;;;;11.27;8.73;;;15.90;99.90;;;;;;5116400;28;20073;-57
2023/08/23 04:13:39;;;;;;;13.68;9.50;;;15.90;99.90;;;;;;5083657;28;20071;-57
2023/08/23 04:16:05;;;;;;;12.80;8.60;;;15.80;99.90;;;;;;5116364;27;20031;-58
2023/08/23 04:18:30;;;;;;;11.30;8.65;;;15.80;99.90;;;;;;5073047;28;20034;-57
2023/08/23 04:21:00;;;;;;;11.68;8.57;;;15.80;99.90;;;;;;5082391;28;20065;-57
2023/08/23 04:23:26;;;;;;;10.10;7.78;;;15.80;99.90;;;;;;5114359;28;20067;-58
2023/08/23 04:25:53;;;;;;;11.52;7.90;;;15.80;99.90;;;;;;5117054;27;20043;-57
2023/08/23 04:28:19;;;;;;;11.27;8.30;;;15.80;99.90;;;;;;5114867;28;20035;-58
2023/08/23 04:30:44;;;;;;;11.25;8.30;;;15.70;99.90;;;;;;5116614;28;20820;-55
2023/08/23 04:33:11;;;;;;;11.57;8.50;;;15.70;99.90;;;;;;5118734;28;20036;-58
2023/08/23 04:35:37;;;;;;;13.48;8.77;;;15.70;99.90;;;;;;5116523;28;20104;-56
2023/08/23 04:38:04;;;;;;;12.15;8.82;;;15.70;99.90;;;;;;5116776;28;20048;-59
2023/08/23 04:40:30;;;;;;;13.88;8.98;;;15.60;99.90;;;;;;5118055;27;20031;-58
2023/08/23 04:42:55;;;;;;;13.77;10.07;;;15.60;99.90;;;;;;5117541;27;20109;-57
2023/08/23 04:45:21;;;;;;;12.60;9.98;;;15.60;99.90;;;;;;5116960;27;20045;-59
2023/08/23 04:47:47;;;;;;;17.55;10.77;;;15.60;99.90;;;;;;5115779;28;20035;-53
2023/08/23 04:50:13;;;;;;;16.95;11.07;;;15.60;99.90;;;;;;5116540;28;20052;-57
2023/08/23 04:52:39;;;;;;;12.82;10.07;;;15.60;99.90;;;;;;5116390;27;20073;-57
2023/08/23 04:55:05;;;;;;;16.52;11.75;;;15.50;99.90;;;;;;5116913;27;20039;-57
2023/08/23 04:57:31;;;;;;;16.13;11.45;;;15.60;99.90;;;;;;5115487;27;20028;-55
2023/08/23 04:59:57;;;;;;;16.83;11.75;;;15.60;99.90;;;;;;5116024;28;20100;-59
2023/08/23 05:02:23;;;;;;;17.35;12.25;;;15.50;99.90;;;;;;5115782;28;20063;-59
2023/08/23 05:04:49;;;;;;;18.50;12.23;;;15.60;99.90;;;;;;5116795;27;20043;-57
2023/08/23 05:07:14;;;;;;;17.42;12.52;;;15.60;99.90;;;;;;5116985;28;20114;-58
2023/08/23 05:09:40;;;;;;;19.67;13.57;;;15.60;99.90;;;;;;5115854;27;20036;-55
2023/08/23 05:12:06;;;;;;;21.15;13.90;;;15.60;99.90;;;;;;5117705;28;20036;-58
2023/08/23 05:14:32;;;;;;;22.42;14.77;;;15.70;99.90;;;;;;5116883;27;20047;-54
2023/08/23 05:16:58;;;;;;;23.77;15.05;;;15.70;99.90;;;;;;5118703;28;20015;-58
2023/08/23 05:19:24;;;;;;;22.67;15.30;;;15.80;99.90;;;;;;5115172;28;20040;-59
2023/08/23 05:21:50;;;;;;;27.73;16.10;;;15.80;99.90;;;;;;5085019;28;20174;-57
2023/08/23 05:24:15;;;;;;;22.73;15.23;;;15.80;99.90;;;;;;5115776;28;20040;-59
2023/08/23 05:26:41;;;;;;;23.17;15.40;;;15.80;99.90;;;;;;5116320;28;20067;-58
2023/08/23 05:29:07;;;;;;;29.90;16.60;;;15.90;99.90;;;;;;5098192;28;20032;-55
2023/08/23 05:31:32;;;;;;;30.52;16.77;;;15.90;99.90;;;;;;5115143;28;20099;-57
2023/08/23 05:33:58;;;;;;;26.77;15.75;;;15.90;99.90;;;;;;5114066;28;20299;-56
2023/08/23 05:36:24;;;;;;;25.17;16.17;;;15.90;99.90;;;;;;5115125;28;20108;-54
2023/08/23 05:38:50;;;;;;;29.65;17.25;;;15.90;99.90;;;;;;5096286;28;20049;-59
2023/08/23 05:41:16;;;;;;;27.73;17.20;;;15.90;99.90;;;;;;5097105;28;20047;-58
2023/08/23 05:43:41;;;;;;;27.27;16.77;;;15.90;99.90;;;;;;5113888;28;20047;-58
2023/08/23 05:46:07;;;;;;;27.75;16.77;;;15.90;99.90;;;;;;5111052;28;20394;-59
2023/08/23 05:48:35;;;;;;;24.80;16.13;;;15.90;99.90;;;;;;5115455;28;20043;-58
2023/08/23 05:51:04;;;;;;;26.35;15.95;;;15.90;99.90;;;;;;5115435;28;20052;-57
2023/08/23 05:53:30;;;;;;;25.33;16.10;;;16.00;99.90;;;;;;5084870;28;20040;-58
2023/08/23 05:55:56;;;;;;;24.48;16.75;;;16.00;99.90;;;;;;5117264;27;20032;-56
2023/08/23 05:58:21;;;;;;;27.52;17.92;;;16.10;99.90;;;;;;5118592;27;20020;-58
2023/08/23 06:00:48;;;;;;;23.67;16.70;;;16.10;99.90;;;;;;5117450;28;20046;-59
2023/08/23 06:03:15;;;;;;;24.45;16.70;;;16.20;99.90;;;;;;5118320;27;20035;-58
2023/08/23 06:05:41;;;;;;;27.02;16.85;;;16.20;99.90;;;;;;5119040;27;20053;-57
2023/08/23 06:08:10;;;;;;;24.08;16.67;;;16.30;99.90;;;;;;5102465;27;20048;-56
2023/08/23 06:10:36;;;;;;;23.80;16.35;;;16.30;99.90;;;;;;5118881;27;20031;-55
2023/08/23 06:13:03;;;;;;;25.30;15.90;;;16.30;99.90;;;;;;5117863;28;20042;-59
2023/08/23 06:15:29;;;;;;;25.08;16.63;;;16.40;99.90;;;;;;5102552;27;20042;-59
2023/08/23 06:17:55;;;;;;;25.58;16.13;;;16.50;99.90;;;;;;5116473;28;20067;-56
2023/08/23 06:20:21;;;;;;;22.13;16.02;;;16.50;99.90;;;;;;5120286;27;20051;-58
2023/08/23 06:22:48;;;;;;;24.25;14.80;;;16.50;99.90;;;;;;5117062;28;20048;-59
2023/08/23 06:25:14;;;;;;;26.63;15.90;;;16.60;99.90;;;;;;5118604;27;20044;-58
2023/08/23 06:27:39;;;;;;;23.88;16.88;;;16.60;99.90;;;;;;5099117;27;20070;-59
2023/08/23 06:30:06;;;;;;;23.33;15.98;;;16.60;99.90;;;;;;5117729;28;20154;-59
2023/08/23 06:32:31;;;;;;;23.13;16.08;;;16.70;99.90;;;;;;5106558;28;20039;-57
2023/08/23 06:34:58;;;;;;;23.33;16.00;;;16.70;99.90;;;;;;5116510;27;20050;-55
2023/08/23 06:37:23;;;;;;;28.35;16.85;;;16.70;99.90;;;;;;5104257;28;20044;-57
2023/08/23 06:39:50;;;;;;;28.52;17.02;;;16.80;99.90;;;;;;5116940;28;20040;-58
2023/08/23 06:42:19;;;;;;;25.38;17.38;;;16.80;99.90;;;;;;5102172;27;20027;-58
2023/08/23 06:44:45;;;;;;;22.63;16.20;;;16.80;99.90;;;;;;5099003;28;20040;-55
2023/08/23 06:47:11;;;;;;;24.58;16.77;;;16.90;99.90;;;;;;5108034;28;20103;-57
2023/08/23 06:49:37;;;;;;;23.58;16.35;;;17.00;99.90;;;;;;5116132;27;20047;-59
2023/08/23 06:52:02;;;;;;;26.75;18.35;;;17.10;99.90;;;;;;5112493;27;20052;-57
2023/08/23 06:54:28;;;;;;;23.75;17.73;;;17.20;99.90;;;;;;5114907;27;20085;-57
2023/08/23 06:56:54;;;;;;;22.77;17.23;;;17.30;99.90;;;;;;5096133;28;20555;-59
2023/08/23 06:59:20;;;;;;;22.60;17.73;;;17.40;99.90;;;;;;5097985;28;20061;-57
2023/08/23 07:01:46;;;;;;;24.23;17.80;;;17.40;99.90;;;;;;5112280;28;20035;-59
2023/08/23 07:04:12;;;;;;;24.45;18.10;;;17.50;99.90;;;;;;5112075;27;20080;-58
2023/08/23 07:06:37;;;;;;;27.02;17.35;;;17.60;99.90;;;;;;5114875;27;20074;-59
2023/08/23 07:09:03;;;;;;;25.77;17.95;;;17.70;99.90;;;;;;5111369;28;20139;-58
2023/08/23 07:11:29;;;;;;;26.42;18.95;;;17.80;99.90;;;;;;5094721;28;20091;-59
2023/08/23 07:13:56;;;;;;;24.58;18.42;;;17.80;99.90;;;;;;5113590;28;20543;-54
2023/08/23 07:16:21;;;;;;;24.15;18.65;;;17.90;99.90;;;;;;5110149;27;20035;-58
2023/08/23 07:18:47;;;;;;;26.20;18.55;;;18.00;99.90;;;;;;5112737;27;20043;-58
2023/08/23 07:21:13;;;;;;;24.42;18.60;;;18.10;99.90;;;;;;5109810;27;20122;-56
2023/08/23 07:23:40;;;;;;;23.95;18.45;;;18.20;99.90;;;;;;5112143;28;20175;-56
2023/08/23 07:26:06;;;;;;;23.52;18.38;;;18.30;99.90;;;;;;5112481;27;20043;-59
2023/08/23 07:28:31;;;;;;;25.02;18.45;;;18.40;99.90;;;;;;5092030;27;20032;-59
2023/08/23 07:30:57;;;;;;;22.40;17.73;;;18.60;99.90;;;;;;5109339;27;20058;-58
2023/08/23 07:33:24;;;;;;;20.63;17.08;;;18.80;99.90;;;;;;5112371;28;20126;-58
2023/08/23 07:36:00;;;;;;;22.85;16.95;;;18.90;99.90;;;;;;5099443;28;20131;-59
2023/08/23 07:38:26;;;;;;;22.73;16.38;;;19.00;99.90;;;;;;5110725;28;20048;-60
2023/08/23 07:40:57;;;;;;;22.42;16.77;;;19.10;99.90;;;;;;5109813;27;20067;-57
2023/08/23 07:43:24;;;;;;;21.60;16.52;;;19.10;99.90;;;;;;5108443;27;20044;-59
2023/08/23 07:45:55;;;;;;;19.95;15.70;;;19.20;99.90;;;;;;5109419;27;20078;-60
2023/08/23 07:48:22;;;;;;;24.88;16.17;;;19.30;99.90;;;;;;5107640;28;20091;-59
2023/08/23 07:50:49;;;;;;;19.83;15.77;;;19.40;99.90;;;;;;5108323;28;20100;-59
2023/08/23 07:53:15;;;;;;;20.23;15.30;;;19.50;99.90;;;;;;5108599;27;20065;-59
2023/08/23 07:55:41;;;;;;;18.40;14.73;;;19.60;99.90;;;;;;5107550;28;20035;-58
2023/08/23 07:58:07;;;;;;;18.40;13.93;;;19.60;99.90;;;;;;5090396;28;20035;-57
2023/08/23 08:00:32;;;;;;;19.98;14.20;;;19.70;99.90;;;;;;5090427;28;20055;-57
2023/08/23 08:02:58;;;;;;;18.98;14.02;;;19.80;99.90;;;;;;5074771;28;20063;-56
2023/08/23 08:05:24;;;;;;;18.33;12.60;;;19.90;99.90;;;;;;5110068;27;20075;-59
2023/08/23 08:07:49;;;;;;;17.60;12.65;;;20.00;99.90;;;;;;5107788;27;20054;-57
2023/08/23 08:10:15;;;;;;;16.15;11.63;;;20.20;99.90;;;;;;5108497;27;20906;-59
2023/08/23 08:12:41;;;;;;;15.30;11.60;;;20.30;99.90;;;;;;5079892;28;20032;-59
2023/08/23 08:15:09;;;;;;;16.45;11.18;;;20.40;99.90;;;;;;5109181;28;20039;-58
2023/08/23 08:17:34;;;;;;;15.95;10.65;;;20.60;99.90;;;;;;5111978;27;20044;-58
2023/08/23 08:20:09;;;;;;;14.23;10.80;;;20.80;99.90;;;;;;5108959;28;20118;-59
2023/08/23 08:22:35;;;;;;;15.80;10.98;;;21.00;99.90;;;;;;5108110;27;20189;-59
2023/08/23 08:25:01;;;;;;;18.88;11.10;;;21.10;99.90;;;;;;5108542;28;20347;-57
2023/08/23 08:27:27;;;;;;;15.23;11.52;;;21.20;99.90;;;;;;5108511;27;20050;-59
2023/08/23 08:29:52;;;;;;;16.83;11.23;;;21.30;99.90;;;;;;5111747;27;20047;-59
2023/08/23 08:32:18;;;;;;;18.23;12.32;;;21.40;99.90;;;;;;5093482;28;20276;-59
2023/08/23 08:34:44;;;;;;;17.17;11.90;;;21.50;99.90;;;;;;5111833;28;20475;-59
2023/08/23 08:37:11;;;;;;;15.30;11.20;;;21.60;99.90;;;;;;5110654;28;20031;-58
2023/08/23 08:39:36;;;;;;;15.10;10.85;;;21.70;99.90;;;;;;5112245;28;20042;-58
2023/08/23 08:42:03;;;;;;;16.27;11.15;;;22.00;99.90;;;;;;5080444;28;20036;-56
2023/08/23 08:44:29;;;;;;;13.07;10.80;;;22.20;99.90;;;;;;5113419;27;20040;-61
2023/08/23 08:46:55;;;;;;;15.52;11.27;;;22.20;99.90;;;;;;5112716;28;20057;-59
2023/08/23 08:49:20;;;;;;;16.38;10.50;;;22.30;99.90;;;;;;5113861;27;20067;-59
2023/08/23 08:51:47;;;;;;;16.35;11.25;;;22.30;99.90;;;;;;5096283;28;20060;-57
2023/08/23 08:54:15;;;;;;;11.65;9.98;;;22.20;99.90;;;;;;5095631;28;20291;-57
2023/08/23 08:56:47;;;;;;;14.13;10.40;;;22.00;99.90;;;;;;5094523;28;20043;-58
2023/08/23 08:59:16;;;;;;;12.68;9.88;;;22.00;99.90;;;;;;5093018;28;20520;-57
2023/08/23 09:01:44;;;;;;;15.02;11.02;;;22.00;99.90;;;;;;5091228;28;20036;-57
2023/08/23 09:04:11;;;;;;;14.45;11.30;;;22.10;99.90;;;;;;5094717;28;20104;-57
2023/08/23 09:06:37;;;;;;;17.55;12.32;;;22.40;99.90;;;;;;5082394;28;20037;-58
2023/08/23 09:09:03;;;;;;;17.20;11.43;;;22.60;99.90;;;;;;5093394;28;20092;-55
2023/08/23 09:11:32;;;;;;;15.48;11.32;;;22.80;99.90;;;;;;5093666;28;20059;-58
2023/08/23 09:13:58;;;;;;;13.95;10.50;;;22.90;99.90;;;;;;5094109;28;20033;-59
2023/08/23 09:16:24;;;;;;;15.23;11.05;;;22.80;99.90;;;;;;5094960;28;20147;-56
2023/08/23 09:18:50;;;;;;;16.30;10.85;;;22.90;99.90;;;;;;5094970;28;20623;-57
2023/08/23 09:21:19;;;;;;;16.05;10.38;;;22.90;99.90;;;;;;5093557;28;20105;-56
2023/08/23 09:23:46;;;;;;;15.45;9.80;;;23.10;99.90;;;;;;5097348;28;20056;-59
2023/08/23 09:26:12;;;;;;;14.35;10.02;;;23.10;99.90;;;;;;5093007;28;20124;-58
2023/08/23 09:28:38;;;;;;;16.08;10.82;;;23.20;99.90;;;;;;5093728;28;20040;-57
2023/08/23 09:31:04;;;;;;;20.10;10.50;;;23.20;99.90;;;;;;5095478;28;20074;-57
2023/08/23 09:33:35;;;;;;;14.18;10.60;;;23.20;99.90;;;;;;5094555;28;20036;-56
2023/08/23 09:36:01;;;;;;;13.65;9.13;;;23.30;99.90;;;;;;5094548;28;20080;-56
2023/08/23 09:38:27;;;;;;;17.00;9.23;;;23.40;99.90;;;;;;5093046;28;20600;-59
2023/08/23 09:40:55;;;;;;;12.32;9.32;;;23.40;99.90;;;;;;5093927;28;20056;-57
2023/08/23 09:43:23;;;;;;;14.57;9.20;;;23.50;99.90;;;;;;5094099;28;20040;-57
2023/08/23 09:45:48;;;;;;;15.20;10.27;;;23.60;99.90;;;;;;5091700;28;20055;-57
2023/08/23 09:48:17;;;;;;;14.35;9.63;;;23.70;99.90;;;;;;5092294;28;20060;-56
2023/08/23 09:50:43;;;;;;;13.57;8.63;;;23.70;99.90;;;;;;5080146;28;20056;-57
2023/08/23 09:53:31;;;;;;;16.50;9.98;;;23.70;99.90;;;;;;5109658;28;20158;-58
2023/08/23 09:55:58;;;;;;;13.40;8.13;;;23.80;99.90;;;;;;5076381;28;20047;-57
2023/08/23 09:58:25;;;;;;;16.98;9.20;;;24.00;99.90;;;;;;5091639;28;20043;-57
2023/08/23 10:00:51;;;;;;;14.23;9.40;;;24.10;99.90;;;;;;5108185;28;20091;-59
2023/08/23 10:03:19;;;;;;;14.82;8.27;;;24.30;99.90;;;;;;5110094;28;20039;-59
2023/08/23 10:05:46;;;;;;;10.32;7.60;;;24.40;99.90;;;;;;5107710;28;20524;-59
2023/08/23 10:08:13;;;;;;;13.75;8.13;;;24.30;99.90;;;;;;5105055;28;20096;-57
2023/08/23 10:10:42;;;;;;;11.80;7.10;;;24.40;99.90;;;;;;5105410;28;20261;-59
2023/08/23 10:13:08;;;;;;;11.68;6.70;;;24.60;99.90;;;;;;5103203;28;20058;-57
2023/08/23 10:15:38;;;;;;;13.70;7.97;;;24.70;99.90;;;;;;5100769;28;20772;-57
2023/08/23 10:18:07;;;;;;;11.48;7.20;;;24.80;99.90;;;;;;5100472;28;20387;-59
2023/08/23 10:20:35;;;;;;;8.05;4.93;;;25.00;99.90;;;;;;5086708;28;20079;-60
2023/08/23 10:23:01;;;;;;;11.25;6.88;;;25.10;99.90;;;;;;5103553;28;20661;-59
2023/08/23 10:25:32;;;;;;;10.32;7.15;;;25.30;99.90;;;;;;5106191;28;20040;-58
2023/08/23 10:27:58;;;;;;;7.35;5.10;;;25.30;99.90;;;;;;5105615;28;20051;-59
2023/08/23 10:30:28;;;;;;;13.05;8.18;;;25.40;99.90;;;;;;5105393;28;20351;-56
2023/08/23 10:32:55;;;;;;;10.30;6.93;;;25.50;99.90;;;;;;5103565;28;20570;-58
2023/08/23 10:35:27;;;;;;;12.45;7.03;;;25.60;99.90;;;;;;5107411;28;20062;-60
2023/08/23 10:37:53;;;;;;;;;;;25.70;99.90;;;;;;5109444;27;20038;-60
2023/08/23 10:40:21;;;;;;;9.80;6.28;;;25.80;99.90;;;;;;5109809;28;19920;-57
2023/08/23 10:42:48;;;;;;;9.10;4.78;;;26.00;99.90;;;;;;5114653;28;20040;-60
2023/08/23 10:45:15;;;;;;;7.72;4.95;;;26.10;99.90;;;;;;5116623;28;20048;-58
2023/08/23 10:47:42;;;;;;;9.30;4.88;;;26.30;99.90;;;;;;5116326;28;20120;-60
2023/08/23 10:50:08;;;;;;;7.72;5.80;;;26.50;99.90;;;;;;5107660;28;20055;-58
2023/08/23 10:52:34;;;;;;;12.23;5.55;;;26.70;99.90;;;;;;5101068;28;20050;-59
2023/08/23 10:55:00;;;;;;;9.50;4.88;;;26.80;99.60;;;;;;5101686;28;20036;-58
2023/08/23 10:57:25;;;;;;;8.23;5.53;;;26.90;99.30;;;;;;5103043;28;20032;-58
2023/08/23 10:59:51;;;;;;;8.63;5.30;;;27.00;98.90;;;;;;5098560;27;21367;-60
2023/08/23 11:02:17;;;;;;;7.45;4.38;;;27.00;98.40;;;;;;5095710;27;20476;-60
2023/08/23 11:04:43;;;;;;;9.88;4.78;;;27.00;98.20;;;;;;5098576;27;20134;-58
2023/08/23 11:07:09;;;;;;;8.35;4.97;;;27.10;98.10;;;;;;5099839;27;20036;-60
2023/08/23 11:09:35;;;;;;;6.70;3.97;;;27.10;97.80;;;;;;5099881;27;20043;-56
2023/08/23 11:12:03;;;;;;;10.05;4.72;;;27.20;97.10;;;;;;5099227;27;20046;-59
2023/08/23 11:14:29;;;;;;;7.03;4.65;;;27.20;96.50;;;;;;5085016;28;20043;-60
2023/08/23 11:16:55;;;;;;;8.85;4.82;;;27.10;96.40;;;;;;5100309;28;20731;-59
2023/08/23 11:19:22;;;;;;;8.48;4.82;;;26.90;96.30;;;;;;5100785;27;20060;-59
2023/08/23 11:21:47;;;;;;;7.03;3.13;;;26.90;96.50;;;;;;5100336;28;20039;-59
2023/08/23 11:24:13;;;;;;;8.30;3.38;;;27.10;96.70;;;;;;5103402;27;20118;-60
2023/08/23 11:26:39;;;;;;;7.43;3.10;;;27.20;96.40;;;;;;5100086;28;20569;-56
2023/08/23 11:29:05;;;;;;;6.40;2.53;;;27.40;95.60;;;;;;5097574;28;20099;-57
2023/08/23 11:31:35;;;;;;;4.85;2.33;;;27.60;95.10;;;;;;5098201;27;20131;-56
2023/08/23 11:34:08;;;;;;;5.07;1.95;;;27.80;94.60;;;;;;5099764;27;20042;-60
2023/08/23 11:36:36;;;;;;;4.00;2.28;;;28.00;93.40;;;;;;5100042;27;20031;-61
2023/08/23 11:39:04;;;;;;;5.82;3.15;;;28.20;92.30;;;;;;5103837;28;20099;-60
2023/08/23 11:41:34;;;;;;;6.93;2.60;;;28.30;92.10;;;;;;5100503;27;20043;-60
2023/08/23 11:44:09;;;;;;;5.43;2.47;;;28.40;91.40;;;;;;5098564;27;20621;-58
2023/08/23 11:46:38;;;;;;;7.43;2.60;;;28.40;91.40;;;;;;5101560;28;20039;-59
2023/08/23 11:49:07;;;;;;;6.05;2.53;;;28.40;90.80;;;;;;5100364;28;20047;-59
2023/08/23 11:51:47;;;;;;;6.55;2.30;;;28.20;90.10;;;;;;5101241;28;20066;-60
2023/08/23 11:54:14;;;;;;;5.70;2.42;;;28.10;90.50;;;;;;5107588;28;20074;-57
2023/08/23 11:56:44;;;;;;;5.88;2.28;;;28.20;90.90;;;;;;5105704;28;20068;-58
2023/08/23 11:59:11;;;;;;;4.07;2.17;;;28.30;90.00;;;;;;5106955;28;20035;-59
2023/08/23 12:01:42;;;;;;;6.35;2.17;;;28.30;90.20;;;;;;5074611;28;20041;-57
2023/08/23 12:04:10;;;;;;;6.47;2.40;;;28.50;88.20;;;;;;5107850;28;20067;-59
2023/08/23 12:06:36;;;;;;;7.63;2.00;;;28.60;86.60;;;;;;5104584;28;21271;-58
2023/08/23 12:09:03;;;;;;;2.80;1.50;;;28.70;84.70;;;;;;5102676;28;20046;-59
2023/08/23 12:11:32;;;;;;;2.90;1.45;;;28.80;83.20;;;;;;5057501;28;20083;-58
2023/08/23 12:14:00;;;;;;;5.13;2.30;;;29.00;83.70;;;;;;5100225;28;20040;-59
2023/08/23 12:16:27;;;;;;;5.43;2.20;;;29.10;83.10;;;;;;5077666;28;20079;-57
2023/08/23 12:18:53;;;;;;;6.75;1.50;;;29.30;84.60;;;;;;5095763;27;20039;-56
2023/08/23 12:21:18;;;;;;;7.13;1.70;;;29.60;82.10;;;;;;5054993;28;20038;-59
2023/08/23 12:23:45;;;;;;;7.97;1.40;;;29.70;81.00;;;;;;5096769;28;20039;-59
2023/08/23 12:26:10;;;;;;;5.82;1.17;;;29.80;78.30;;;;;;5092545;27;20040;-59
2023/08/23 12:28:39;;;;;;;6.45;1.30;;;29.90;77.00;;;;;;5090731;28;20032;-59
2023/08/23 12:31:05;;;;;;;3.65;1.40;;;30.00;76.90;;;;;;5090756;28;20075;-60
2023/08/23 12:33:30;;;;;;;2.85;1.00;;;29.90;75.80;;;;;;5093129;28;20035;-60